Time;durP1;ratioP1;P1;durP2;ratioP2;P2;SDS_P1;SDS_P2;PMS_P1;PMS_P2;Temp;Humidity;BMP_temperature;BMP_pressure;BME280_temperature;BME280_humidity;BME280_pressure;Samples;Min_cycle;Max_cycle;Signal;HPM_P1;HPM_P2
2021/11/12 00:13:05;;;;;;;9.50;4.30;;;19.80;43.10;;;;;;4920055;29;20027;-49
2021/11/12 00:15:34;;;;;;;8.32;4.13;;;19.80;43.10;;;;;;4920195;29;20043;-51
2021/11/12 00:18:01;;;;;;;7.53;4.00;;;19.80;43.10;;;;;;4919849;29;20098;-49
2021/11/12 00:20:27;;;;;;;8.50;4.13;;;19.80;43.10;;;;;;4919939;29;20046;-50
2021/11/12 00:22:53;;;;;;;8.07;3.60;;;19.80;43.10;;;;;;4920032;29;20115;-48
2021/11/12 00:25:19;;;;;;;8.00;3.90;;;19.80;43.10;;;;;;4919856;29;20100;-49
2021/11/12 00:27:45;;;;;;;9.48;4.20;;;19.80;43.10;;;;;;4919710;29;20024;-49
2021/11/12 00:33:21;;;;;;;8.90;3.97;;;19.80;43.10;;;;;;4919914;29;20043;-51
2021/11/12 00:35:59;;;;;;;7.93;4.13;;;19.80;43.10;;;;;;4919666;29;20076;-49
2021/11/12 00:38:29;;;;;;;9.52;4.53;;;19.80;43.10;;;;;;4919571;29;20035;-52
2021/11/12 00:41:33;;;;;;;8.00;4.05;;;19.80;43.10;;;;;;4919685;29;20040;-50
2021/11/12 00:43:50;;;;;;;9.18;4.45;;;19.80;43.10;;;;;;4917359;29;20044;-50
2021/11/12 00:49:24;;;;;;;8.02;4.13;;;19.80;43.10;;;;;;4860966;29;20068;-52
2021/11/12 00:51:52;;;;;;;9.05;3.97;;;19.80;43.10;;;;;;4860964;29;20463;-48
2021/11/12 00:54:19;;;;;;;9.43;4.47;;;19.80;43.20;;;;;;4890168;29;20036;-51
2021/11/12 00:56:47;;;;;;;9.30;4.65;;;19.80;43.10;;;;;;4919383;29;20033;-53
2021/11/12 00:59:13;;;;;;;7.50;3.95;;;19.80;43.10;;;;;;4919083;29;20024;-50
2021/11/12 01:01:39;;;;;;;8.68;4.10;;;19.80;43.20;;;;;;4919058;29;20095;-50
2021/11/12 01:04:08;;;;;;;7.70;4.30;;;19.80;43.10;;;;;;4919112;29;20032;-50
2021/11/12 01:06:36;;;;;;;8.48;4.90;;;19.80;43.10;;;;;;4919158;29;20051;-49
2021/11/12 01:09:08;;;;;;;7.95;4.60;;;19.80;43.10;;;;;;4918892;29;20503;-51
2021/11/12 01:11:33;;;;;;;9.05;4.22;;;19.80;43.20;;;;;;4917723;29;20066;-50
2021/11/12 01:14:00;;;;;;;9.48;4.70;;;19.80;43.10;;;;;;4918978;29;20064;-49
2021/11/12 01:16:26;;;;;;;8.43;4.57;;;19.80;43.20;;;;;;4918801;29;20032;-49
2021/11/12 01:18:53;;;;;;;10.30;5.28;;;19.80;43.20;;;;;;4918973;29;20110;-49
2021/11/12 01:21:19;;;;;;;10.40;5.60;;;19.80;43.20;;;;;;4918660;29;20480;-48
2021/11/12 01:23:49;;;;;;;8.40;4.43;;;19.80;43.20;;;;;;4918829;29;20032;-51
2021/11/12 01:26:16;;;;;;;8.05;4.20;;;19.80;43.20;;;;;;4918681;29;20028;-51
2021/11/12 01:28:42;;;;;;;9.23;4.68;;;19.80;43.20;;;;;;4918593;29;20028;-53
2021/11/12 01:31:09;;;;;;;10.40;4.90;;;19.80;43.20;;;;;;4918565;29;20035;-53
2021/11/12 01:33:35;;;;;;;10.20;5.00;;;19.80;43.20;;;;;;4918629;29;20028;-54
2021/11/12 01:36:23;;;;;;;11.90;5.00;;;19.70;43.20;;;;;;4918766;29;20115;-50
2021/11/12 01:38:50;;;;;;;9.07;4.63;;;19.70;43.20;;;;;;4918714;29;20036;-54
2021/11/12 01:41:16;;;;;;;8.32;4.50;;;19.80;43.20;;;;;;4918341;29;20044;-49
2021/11/12 01:43:46;;;;;;;10.18;5.20;;;19.80;43.20;;;;;;4918307;29;20406;-48
2021/11/12 01:49:07;;;;;;;8.23;4.55;;;19.70;43.20;;;;;;4918449;29;20079;-49
2021/11/12 01:59:16;;;;;;;9.32;4.53;;;19.70;43.20;;;;;;4918444;29;20086;-49
2021/11/12 02:01:51;;;;;;;10.65;5.03;;;19.70;43.20;;;;;;4918034;29;20122;-49
2021/11/12 02:04:32;;;;;;;10.00;4.50;;;19.70;43.20;;;;;;4917881;29;20503;-49
2021/11/12 02:06:59;;;;;;;10.50;5.45;;;19.70;43.20;;;;;;4916719;29;20047;-53
2021/11/12 02:09:25;;;;;;;9.70;4.78;;;19.70;43.20;;;;;;4917950;29;20020;-48
2021/11/12 02:11:55;;;;;;;8.95;5.32;;;19.70;43.30;;;;;;4917826;29;20028;-49
2021/11/12 02:14:23;;;;;;;9.45;4.47;;;19.70;43.30;;;;;;4917803;29;20384;-51
2021/11/12 02:16:56;;;;;;;10.88;5.05;;;19.70;43.20;;;;;;4917651;29;20063;-51
2021/11/12 02:19:22;;;;;;;9.55;5.07;;;19.70;43.20;;;;;;4917756;29;20020;-49
2021/11/12 02:21:53;;;;;;;10.00;5.95;;;19.70;43.20;;;;;;4917420;29;20043;-49
2021/11/12 02:24:18;;;;;;;10.15;5.72;;;19.70;43.20;;;;;;4917671;29;20024;-52
2021/11/12 02:26:47;;;;;;;10.20;5.22;;;19.70;43.30;;;;;;4917495;29;20043;-50
2021/11/12 02:29:15;;;;;;;9.57;4.85;;;19.70;43.20;;;;;;4917749;29;20031;-49
2021/11/12 02:31:40;;;;;;;11.20;5.78;;;19.70;43.30;;;;;;4917418;29;20036;-51
2021/11/12 02:34:09;;;;;;;10.30;5.43;;;19.70;43.30;;;;;;4917684;29;20028;-49
2021/11/12 02:36:36;;;;;;;9.18;5.20;;;19.70;43.30;;;;;;4917340;29;20082;-50
2021/11/12 02:39:05;;;;;;;10.75;5.07;;;19.70;43.30;;;;;;4917602;29;20365;-53
2021/11/12 02:41:30;;;;;;;11.15;5.40;;;19.70;43.30;;;;;;4917292;29;20036;-54
2021/11/12 02:43:56;;;;;;;9.35;4.90;;;19.70;43.30;;;;;;4917293;29;20087;-53
2021/11/12 02:46:25;;;;;;;9.77;5.20;;;19.70;43.30;;;;;;4917537;29;20095;-51
2021/11/12 02:48:51;;;;;;;9.95;5.63;;;19.70;43.30;;;;;;4917499;29;20028;-50
2021/11/12 02:51:22;;;;;;;9.25;5.07;;;19.70;43.30;;;;;;4917285;29;20077;-48
2021/11/12 02:53:49;;;;;;;10.32;5.20;;;19.70;43.30;;;;;;4917429;29;20034;-50
2021/11/12 02:59:02;;;;;;;10.82;5.53;;;19.70;43.30;;;;;;4917382;29;20032;-50
2021/11/12 03:01:29;;;;;;;9.30;5.28;;;19.70;43.30;;;;;;4917246;29;20040;-48
2021/11/12 03:03:55;;;;;;;9.63;5.70;;;19.70;43.30;;;;;;4916794;29;20519;-52
2021/11/12 03:06:22;;;;;;;9.63;5.45;;;19.70;43.30;;;;;;4917019;29;20088;-49
2021/11/12 03:08:48;;;;;;;10.50;5.10;;;19.70;43.30;;;;;;4916915;29;20025;-48
2021/11/12 03:11:14;;;;;;;8.95;5.35;;;19.70;43.30;;;;;;4916911;29;20107;-51
2021/11/12 03:13:40;;;;;;;10.82;5.28;;;19.70;43.30;;;;;;4917120;29;20455;-50
2021/11/12 03:16:06;;;;;;;10.05;5.57;;;19.70;43.30;;;;;;4916888;29;20028;-53
2021/11/12 03:18:32;;;;;;;10.15;5.55;;;19.70;43.30;;;;;;4916943;29;20020;-50
2021/11/12 03:21:00;;;;;;;10.77;5.50;;;19.70;43.30;;;;;;4916824;29;20126;-48
2021/11/12 03:23:33;;;;;;;8.18;4.30;;;19.70;43.30;;;;;;4917025;29;20047;-48
2021/11/12 03:29:13;;;;;;;9.75;5.07;;;19.70;43.30;;;;;;4917105;29;20043;-48
2021/11/12 04:00:54;;;;;;;9.70;5.68;;;19.60;43.30;;;;;;4920304;29;20550;-51
2021/11/12 04:49:38;;;;;;;8.05;4.40;;;19.60;43.40;;;;;;4919707;29;20503;-52
2021/11/12 05:03:24;;;;;;;8.93;4.38;;;19.60;43.40;;;;;;4919110;29;20235;-48
2021/11/12 05:13:53;;;;;;;9.15;4.55;;;19.60;43.40;;;;;;4918880;29;20042;-49
2021/11/12 05:56:42;;;;;;;8.23;4.93;;;19.90;43.10;;;;;;4917780;29;20532;-49
2021/11/12 05:59:10;;;;;;;8.15;4.78;;;19.90;43.10;;;;;;4918081;29;20035;-51
2021/11/12 06:01:37;;;;;;;9.05;4.40;;;19.90;43.10;;;;;;4917823;29;20048;-51
2021/11/12 06:04:04;;;;;;;8.30;4.00;;;19.90;43.00;;;;;;4918246;29;20044;-51
2021/11/12 06:06:30;;;;;;;7.30;4.15;;;19.90;43.00;;;;;;4918222;29;20036;-51
2021/11/12 06:08:56;;;;;;;8.57;4.78;;;19.90;43.00;;;;;;4917859;29;20115;-55
2021/11/12 06:11:23;;;;;;;8.18;4.22;;;19.90;43.00;;;;;;4917970;29;20024;-52
2021/11/12 06:13:49;;;;;;;8.30;3.95;;;19.90;43.00;;;;;;4917734;29;20025;-49
2021/11/12 06:16:15;;;;;;;8.35;4.20;;;19.90;43.00;;;;;;4917972;29;20036;-51
2021/11/12 06:18:41;;;;;;;9.10;4.63;;;19.90;43.10;;;;;;4918099;29;20035;-49
2021/11/12 06:21:09;;;;;;;8.52;4.43;;;19.90;43.00;;;;;;4917425;29;20044;-51
2021/11/12 06:23:35;;;;;;;9.15;4.93;;;19.90;43.00;;;;;;4917495;29;20064;-48
2021/11/12 06:26:01;;;;;;;8.68;4.07;;;19.90;43.00;;;;;;4917610;29;20034;-52
2021/11/12 06:28:26;;;;;;;7.63;4.03;;;19.90;42.90;;;;;;4917451;29;20111;-49
2021/11/12 06:30:52;;;;;;;8.05;4.32;;;19.90;42.90;;;;;;4917698;29;20031;-50
2021/11/12 06:33:17;;;;;;;7.60;4.13;;;19.90;42.90;;;;;;4917484;29;20528;-49
2021/11/12 06:35:43;;;;;;;9.32;4.50;;;19.90;42.90;;;;;;4917586;29;20032;-48
2021/11/12 06:38:11;;;;;;;7.60;4.20;;;19.90;42.90;;;;;;4917425;29;20433;-49
2021/11/12 06:40:37;;;;;;;7.90;4.05;;;19.90;43.00;;;;;;4917287;29;20028;-50
2021/11/12 06:51:10;;;;;;;7.20;3.88;;;19.90;42.90;;;;;;4898599;29;20108;-51
2021/11/12 06:53:36;;;;;;;8.40;4.13;;;19.90;42.80;;;;;;4916994;29;20051;-49
2021/11/12 06:56:02;;;;;;;7.90;4.05;;;19.90;42.90;;;;;;4917450;29;20039;-50
2021/11/12 06:58:31;;;;;;;6.78;3.97;;;19.90;42.90;;;;;;4917123;29;20031;-49
2021/11/12 07:00:57;;;;;;;7.93;3.85;;;19.90;42.90;;;;;;4916766;29;20468;-53
2021/11/12 07:03:24;;;;;;;6.80;3.45;;;19.90;42.80;;;;;;4916911;29;20052;-53
2021/11/12 07:05:50;;;;;;;7.72;3.95;;;19.80;42.90;;;;;;4916997;29;20032;-50
2021/11/12 07:08:16;;;;;;;8.38;4.30;;;19.90;42.80;;;;;;4916898;29;20125;-50
2021/11/12 07:10:42;;;;;;;7.03;3.45;;;19.90;42.80;;;;;;4916966;29;20056;-50
2021/11/12 07:13:08;;;;;;;8.45;4.10;;;19.80;42.80;;;;;;4917128;29;20032;-49
2021/11/12 07:15:33;;;;;;;6.68;3.45;;;19.90;42.80;;;;;;4916912;29;20047;-52
2021/11/12 07:17:59;;;;;;;6.88;3.55;;;19.90;42.70;;;;;;4917110;29;20035;-51
2021/11/12 07:20:25;;;;;;;8.70;3.70;;;19.90;42.80;;;;;;4916703;29;20035;-49
2021/11/12 07:22:51;;;;;;;8.18;4.00;;;19.80;42.70;;;;;;4916714;29;20036;-50
2021/11/12 07:25:17;;;;;;;7.45;3.60;;;19.90;42.80;;;;;;4916969;29;20039;-49
2021/11/12 07:27:42;;;;;;;7.93;3.88;;;19.90;42.70;;;;;;4916888;29;20032;-49
2021/11/12 07:30:14;;;;;;;7.93;3.92;;;19.90;42.70;;;;;;4917264;29;20413;-50
2021/11/12 07:32:42;;;;;;;7.13;3.42;;;19.90;42.70;;;;;;4916726;29;20507;-49
2021/11/12 07:35:08;;;;;;;7.38;3.70;;;19.90;42.70;;;;;;4916674;29;20060;-49
2021/11/12 07:37:34;;;;;;;7.20;3.60;;;19.90;42.70;;;;;;4916714;29;20063;-50
2021/11/12 07:40:03;;;;;;;7.65;3.70;;;19.90;42.70;;;;;;4916771;29;20059;-52
2021/11/12 07:47:26;;;;;;;7.00;3.65;;;19.90;42.70;;;;;;4916852;29;20036;-54
2021/11/12 07:49:55;;;;;;;8.80;4.25;;;19.90;42.70;;;;;;4916716;29;20028;-50
2021/11/12 07:52:25;;;;;;;6.45;3.13;;;19.90;42.70;;;;;;4916510;29;20075;-49
2021/11/12 07:54:51;;;;;;;6.38;3.08;;;19.90;42.70;;;;;;4916351;29;20491;-49
2021/11/12 07:57:17;;;;;;;7.45;3.40;;;19.90;42.70;;;;;;4916615;29;20059;-54
2021/11/12 07:59:42;;;;;;;7.55;3.35;;;19.90;42.70;;;;;;4916275;29;20032;-49
2021/11/12 08:02:11;;;;;;;6.95;3.15;;;19.90;42.60;;;;;;4916093;29;20063;-50
2021/11/12 08:04:37;;;;;;;8.38;3.55;;;19.90;42.70;;;;;;4916455;29;20440;-50
2021/11/12 08:07:03;;;;;;;8.45;3.17;;;19.90;42.70;;;;;;4916518;29;20028;-51
2021/11/12 08:09:34;;;;;;;6.82;3.10;;;19.90;42.70;;;;;;4915100;29;20468;-49
2021/11/12 08:12:05;;;;;;;6.35;3.08;;;19.90;42.60;;;;;;4916496;29;20039;-51
2021/11/12 08:14:37;;;;;;;6.32;3.15;;;19.90;42.70;;;;;;4916213;29;20028;-49
2021/11/12 08:20:03;;;;;;;6.93;3.63;;;19.90;42.70;;;;;;4916655;29;20043;-53
2021/11/12 08:25:40;;;;;;;6.65;3.20;;;20.00;42.70;;;;;;4920130;29;20472;-50
2021/11/12 08:28:03;;;;;;;6.93;3.45;;;19.90;42.60;;;;;;4917582;29;20111;-53
2021/11/12 08:35:44;;;;;;;7.47;3.13;;;19.90;42.70;;;;;;4919637;29;20369;-52
2021/11/12 08:46:04;;;;;;;5.32;2.75;;;19.90;42.70;;;;;;4919481;29;20055;-51
2021/11/12 08:48:37;;;;;;;7.13;3.55;;;19.90;42.70;;;;;;4918734;29;20040;-49
2021/11/12 08:51:06;;;;;;;6.38;3.10;;;19.90;42.70;;;;;;4919620;29;20040;-50
2021/11/12 08:53:32;;;;;;;6.75;3.38;;;19.90;42.70;;;;;;4919410;29;20024;-50
2021/11/12 08:55:57;;;;;;;6.60;3.55;;;19.90;42.70;;;;;;4919118;29;20028;-49
2021/11/12 08:58:23;;;;;;;6.88;3.20;;;19.90;42.70;;;;;;4919362;29;20031;-52
2021/11/12 09:00:49;;;;;;;5.78;3.20;;;19.90;42.70;;;;;;4918811;29;20079;-53
2021/11/12 09:03:14;;;;;;;6.20;3.20;;;19.90;42.70;;;;;;4918860;29;20142;-49
2021/11/12 09:05:40;;;;;;;5.65;2.75;;;19.90;42.70;;;;;;4919248;29;20024;-52
2021/11/12 09:08:05;;;;;;;7.32;3.58;;;19.90;42.70;;;;;;4919112;29;20020;-54
2021/11/12 09:10:32;;;;;;;6.93;2.95;;;19.90;42.70;;;;;;4918925;29;20099;-52
2021/11/12 09:13:00;;;;;;;7.15;3.42;;;19.90;42.70;;;;;;4918859;29;20100;-49
2021/11/12 09:15:29;;;;;;;5.88;3.03;;;19.90;42.70;;;;;;4918698;29;20039;-51
2021/11/12 09:17:56;;;;;;;7.22;3.65;;;19.90;42.70;;;;;;4918944;29;20028;-51
2021/11/12 09:20:23;;;;;;;8.75;3.35;;;19.90;42.70;;;;;;4918720;29;20032;-49
2021/11/12 09:22:49;;;;;;;7.38;2.67;;;19.90;42.70;;;;;;4918835;29;20080;-50
2021/11/12 09:25:15;;;;;;;7.47;3.28;;;19.90;42.70;;;;;;4918519;29;20043;-53
2021/11/12 09:27:41;;;;;;;6.47;2.72;;;19.90;42.70;;;;;;4918828;29;20469;-49
2021/11/12 09:30:10;;;;;;;7.60;3.13;;;19.90;42.70;;;;;;4918451;29;20043;-49
2021/11/12 09:32:36;;;;;;;5.43;2.75;;;19.90;42.70;;;;;;4917278;29;20047;-51
2021/11/12 09:35:02;;;;;;;7.72;3.33;;;19.90;42.70;;;;;;4918638;29;20056;-51
2021/11/12 09:37:28;;;;;;;6.75;3.50;;;19.90;42.70;;;;;;4918400;29;20484;-49
2021/11/12 09:39:57;;;;;;;5.93;3.05;;;19.90;42.70;;;;;;4918526;29;20071;-51
2021/11/12 09:42:25;;;;;;;6.28;2.90;;;20.00;42.70;;;;;;4918355;29;20028;-49
2021/11/12 09:44:52;;;;;;;7.10;3.55;;;20.00;42.70;;;;;;4918572;29;20075;-52
2021/11/12 09:47:23;;;;;;;6.10;2.72;;;19.90;42.70;;;;;;4918072;29;20028;-50
2021/11/12 09:49:50;;;;;;;5.63;2.78;;;20.00;42.60;;;;;;4918359;29;20032;-53
2021/11/12 09:52:17;;;;;;;5.22;2.65;;;20.00;42.60;;;;;;4918480;29;20054;-54
2021/11/12 09:54:42;;;;;;;5.70;2.80;;;20.00;42.60;;;;;;4918100;29;20039;-53
2021/11/12 09:57:09;;;;;;;6.22;2.67;;;20.00;42.60;;;;;;4918298;29;20032;-53
2021/11/12 09:59:35;;;;;;;5.70;2.63;;;20.00;42.50;;;;;;4917956;29;20035;-51
2021/11/12 10:02:02;;;;;;;6.95;2.95;;;20.10;42.40;;;;;;4917991;29;20052;-51
2021/11/12 10:04:30;;;;;;;7.20;2.53;;;20.10;42.40;;;;;;4918298;29;20032;-55
2021/11/12 10:06:58;;;;;;;6.57;2.97;;;20.10;42.40;;;;;;4918133;29;20035;-49
2021/11/12 10:09:24;;;;;;;5.57;2.30;;;20.20;42.40;;;;;;4917932;29;20020;-51
2021/11/12 10:11:51;;;;;;;5.57;2.78;;;20.10;42.40;;;;;;4918011;29;20490;-50
2021/11/12 10:14:31;;;;;;;5.78;2.90;;;20.20;42.40;;;;;;4918046;29;20028;-49
2021/11/12 10:16:58;;;;;;;5.53;2.65;;;20.20;42.50;;;;;;4917936;29;20449;-50
2021/11/12 10:19:25;;;;;;;5.78;2.65;;;20.20;42.50;;;;;;4917647;29;20133;-49
2021/11/12 10:22:03;;;;;;;5.78;2.63;;;20.10;42.40;;;;;;4917619;29;20092;-50
2021/11/12 10:24:32;;;;;;;5.72;2.70;;;20.20;42.40;;;;;;4917520;29;20062;-49
2021/11/12 10:27:06;;;;;;;6.47;2.70;;;20.20;42.50;;;;;;4917346;29;20580;-50
2021/11/12 10:29:40;;;;;;;5.45;2.58;;;20.20;42.50;;;;;;4917312;29;20105;-53
2021/11/12 10:32:08;;;;;;;5.40;2.57;;;20.10;42.50;;;;;;4917356;29;20058;-50
2021/11/12 10:34:36;;;;;;;5.63;2.63;;;20.10;42.50;;;;;;4917348;29;20088;-50
2021/11/12 10:37:10;;;;;;;5.47;2.60;;;20.00;42.50;;;;;;4917498;29;20028;-50
2021/11/12 10:39:49;;;;;;;5.15;2.42;;;20.00;42.50;;;;;;4917253;29;20025;-50
2021/11/12 10:42:22;;;;;;;4.40;2.10;;;20.00;42.60;;;;;;4917184;29;20127;-54
2021/11/12 10:44:51;;;;;;;5.47;2.50;;;20.00;42.60;;;;;;4917209;29;20484;-54
2021/11/12 10:47:20;;;;;;;5.55;2.60;;;20.00;42.60;;;;;;4917232;29;20043;-50
2021/11/12 10:49:51;;;;;;;5.57;2.60;;;20.00;42.60;;;;;;4917104;29;20083;-54
2021/11/12 10:52:23;;;;;;;5.38;2.55;;;20.00;42.70;;;;;;4916934;29;20158;-54
2021/11/12 10:57:17;;;;;;;5.85;2.50;;;20.00;42.60;;;;;;4916643;29;20031;-49
2021/11/12 11:00:05;;;;;;;5.68;2.50;;;20.00;42.60;;;;;;4916770;29;20020;-49
2021/11/12 11:02:36;;;;;;;5.55;2.38;;;20.00;42.70;;;;;;4916881;29;20048;-49
2021/11/12 11:05:26;;;;;;;5.40;2.70;;;19.90;42.60;;;;;;4916664;29;20051;-54
2021/11/12 11:08:06;;;;;;;4.90;2.30;;;19.90;42.70;;;;;;4911374;29;20033;-49
2021/11/12 11:10:38;;;;;;;5.60;2.63;;;20.00;42.70;;;;;;4916968;29;20032;-49
2021/11/12 11:13:09;;;;;;;6.00;2.50;;;20.00;42.70;;;;;;4916609;29;20027;-51
2021/11/12 11:15:38;;;;;;;5.55;2.63;;;19.90;42.70;;;;;;4916847;29;20036;-50
2021/11/12 11:18:26;;;;;;;5.30;2.28;;;20.00;42.60;;;;;;4916800;29;20049;-54
2021/11/12 11:21:04;;;;;;;5.32;2.83;;;20.00;42.60;;;;;;4916584;29;20070;-51
2021/11/12 11:24:04;;;;;;;5.78;2.63;;;20.00;42.60;;;;;;4916672;29;20028;-54
2021/11/12 11:26:39;;;;;;;4.70;2.30;;;20.00;42.60;;;;;;4916448;29;20031;-50
2021/11/12 11:29:07;;;;;;;6.30;2.42;;;20.00;42.60;;;;;;4916276;29;20098;-56
2021/11/12 11:31:33;;;;;;;4.65;2.17;;;20.00;42.60;;;;;;4916353;29;20555;-54
2021/11/12 11:34:00;;;;;;;6.07;2.35;;;20.00;42.60;;;;;;4916811;29;20116;-53
2021/11/12 11:36:28;;;;;;;5.55;2.63;;;20.00;42.60;;;;;;4916878;29;20032;-53
2021/11/12 11:38:56;;;;;;;5.30;2.50;;;20.00;42.60;;;;;;4916829;29;20032;-49
2021/11/12 11:41:23;;;;;;;6.10;2.50;;;20.00;42.60;;;;;;4916277;29;20075;-49
2021/11/12 11:43:50;;;;;;;6.32;2.67;;;20.00;42.60;;;;;;4916695;29;20087;-52
2021/11/12 11:46:22;;;;;;;4.40;2.15;;;20.00;42.60;;;;;;4916706;29;20028;-53
2021/11/12 11:48:48;;;;;;;4.65;2.30;;;20.00;42.60;;;;;;4916559;29;20043;-53
2021/11/12 11:51:37;;;;;;;4.35;2.30;;;20.00;42.60;;;;;;4916571;29;20479;-49
2021/11/12 11:54:12;;;;;;;5.18;2.40;;;20.00;42.50;;;;;;4916887;29;20020;-53
2021/11/12 11:56:42;;;;;;;4.65;2.38;;;20.00;42.50;;;;;;4919713;29;20043;-50
2021/11/12 11:59:25;;;;;;;6.10;2.70;;;20.00;42.60;;;;;;4920382;29;20034;-53
2021/11/12 12:01:52;;;;;;;6.68;2.65;;;20.10;42.40;;;;;;4919849;29;20496;-52
2021/11/12 12:04:18;;;;;;;4.78;2.25;;;20.20;42.30;;;;;;4920116;29;20103;-58
2021/11/12 12:07:04;;;;;;;5.03;2.15;;;20.10;42.40;;;;;;4919961;29;20035;-53
2021/11/12 12:09:48;;;;;;;6.95;2.45;;;20.10;42.60;;;;;;4920095;29;20036;-52
2021/11/12 12:12:34;;;;;;;8.25;2.40;;;20.10;42.50;;;;;;4919824;29;20043;-59
2021/11/12 12:15:06;;;;;;;7.35;2.70;;;20.30;42.10;;;;;;4919909;29;20040;-59
2021/11/12 12:17:46;;;;;;;5.10;2.30;;;20.10;42.40;;;;;;4919956;29;20439;-59
2021/11/12 12:20:43;;;;;;;4.85;2.25;;;20.10;42.60;;;;;;4919731;29;20064;-56
2021/11/12 13:25:47;;;;;;;4.95;2.25;;;20.20;42.40;;;;;;4898176;29;20052;-57
2021/11/12 13:28:25;;;;;;;4.68;2.00;;;20.20;42.40;;;;;;4898668;29;20136;-60
2021/11/12 13:31:02;;;;;;;5.90;1.90;;;20.20;42.40;;;;;;4899446;29;20024;-54
2021/11/12 13:33:43;;;;;;;4.47;1.83;;;20.20;42.40;;;;;;4899111;29;20028;-54
2021/11/12 13:36:12;;;;;;;6.25;2.08;;;20.20;42.40;;;;;;4899205;29;20037;-54
2021/11/12 13:38:44;;;;;;;4.32;1.92;;;20.20;42.40;;;;;;4899938;29;20064;-55
2021/11/12 13:41:13;;;;;;;5.55;2.05;;;20.20;42.40;;;;;;4899564;29;20093;-55
2021/11/12 13:43:42;;;;;;;9.43;3.58;;;20.20;42.40;;;;;;4899327;29;20384;-56
2021/11/12 13:46:08;;;;;;;4.68;2.10;;;20.20;42.40;;;;;;4899082;29;20477;-55
2021/11/12 13:48:42;;;;;;;4.53;1.80;;;20.20;42.40;;;;;;4899142;29;20067;-52
2021/11/12 13:51:08;;;;;;;6.70;1.90;;;20.20;42.40;;;;;;4897035;29;20037;-56
2021/11/12 13:53:34;;;;;;;4.00;1.85;;;20.20;42.40;;;;;;4897441;29;20183;-54
2021/11/12 13:56:01;;;;;;;4.13;1.90;;;20.20;42.40;;;;;;4897116;29;20040;-55
2021/11/12 13:58:27;;;;;;;6.78;2.17;;;20.20;42.40;;;;;;4897982;29;20033;-51
2021/11/12 14:00:57;;;;;;;7.38;1.90;;;20.20;42.40;;;;;;4898480;29;20437;-55
2021/11/12 14:03:37;;;;;;;4.70;1.85;;;20.20;42.50;;;;;;4898584;29;20132;-50
2021/11/12 14:06:09;;;;;;;5.63;1.88;;;20.20;42.40;;;;;;4908348;29;20087;-53
2021/11/12 14:08:44;;;;;;;4.97;2.35;;;20.20;42.60;;;;;;4917231;29;20031;-55
2021/11/12 14:11:29;;;;;;;4.00;2.03;;;20.20;42.70;;;;;;4913165;29;20035;-51
2021/11/12 14:14:04;;;;;;;4.18;1.98;;;20.20;42.70;;;;;;4915140;29;20072;-53
2021/11/12 14:16:53;;;;;;;5.20;2.10;;;20.30;42.60;;;;;;4917114;29;20028;-51
2021/11/12 14:22:10;;;;;;;3.75;2.00;;;20.20;42.90;;;;;;4917346;29;20055;-54
2021/11/12 14:24:58;;;;;;;3.47;1.80;;;20.20;43.00;;;;;;4917552;29;20032;-51
2021/11/12 14:37:50;;;;;;;6.22;2.08;;;20.20;43.20;;;;;;4917023;29;20028;-57
2021/11/12 14:40:23;;;;;;;4.40;1.70;;;20.30;43.20;;;;;;4915762;29;20039;-50
2021/11/12 14:45:28;;;;;;;6.15;2.35;;;20.20;42.90;;;;;;4897953;29;20039;-51
2021/11/12 14:48:09;;;;;;;6.78;2.00;;;20.30;43.10;;;;;;4896796;29;20616;-48
2021/11/12 14:53:02;;;;;;;4.20;1.60;;;20.20;43.20;;;;;;4896861;29;20036;-52
2021/11/12 14:55:28;;;;;;;4.18;1.95;;;20.20;43.20;;;;;;4896703;29;20388;-53
2021/11/12 14:57:55;;;;;;;4.70;1.90;;;20.20;43.20;;;;;;4896998;29;20493;-54
2021/11/12 15:00:20;;;;;;;8.75;2.15;;;20.20;43.20;;;;;;4897124;29;20369;-51
2021/11/12 15:02:46;;;;;;;3.20;1.55;;;20.30;43.20;;;;;;4897671;29;20100;-51
2021/11/12 15:05:14;;;;;;;4.53;1.70;;;20.20;43.20;;;;;;4897960;29;20380;-50
2021/11/12 15:07:43;;;;;;;5.82;2.00;;;20.20;43.20;;;;;;4897910;29;20028;-51
2021/11/12 15:10:14;;;;;;;8.05;2.20;;;20.20;43.20;;;;;;4897937;29;20028;-54
2021/11/12 15:12:42;;;;;;;4.80;1.90;;;20.20;43.20;;;;;;4898054;29;20108;-50
2021/11/12 15:15:08;;;;;;;4.80;1.73;;;20.20;43.10;;;;;;4897686;29;20374;-53
2021/11/12 15:17:33;;;;;;;4.35;1.95;;;20.20;43.10;;;;;;4897658;29;20080;-53
2021/11/12 15:20:00;;;;;;;4.57;1.77;;;20.20;43.20;;;;;;4897630;29;20025;-50
2021/11/12 15:28:03;;;;;;;5.28;1.75;;;20.20;43.10;;;;;;4897892;29;20063;-53
2021/11/12 15:30:39;;;;;;;3.72;1.60;;;20.20;43.10;;;;;;4896855;29;20516;-50
2021/11/12 15:33:07;;;;;;;7.88;1.95;;;20.10;43.10;;;;;;4897925;29;20124;-53
2021/11/12 15:35:34;;;;;;;4.80;2.08;;;20.20;43.20;;;;;;4897807;29;20032;-54
2021/11/12 15:38:49;;;;;;;3.58;1.40;;;20.20;43.20;;;;;;4897748;29;20036;-51
2021/11/12 15:40:49;;;;;;;5.10;1.65;;;20.10;43.10;;;;;;4890537;29;20044;-50
2021/11/12 15:48:14;;;;;;;4.30;1.98;;;20.10;43.10;;;;;;4897900;29;20108;-50
2021/11/12 15:50:51;;;;;;;4.90;1.90;;;20.10;43.10;;;;;;4897510;29;20056;-50
2021/11/12 15:53:35;;;;;;;5.13;2.05;;;20.10;43.10;;;;;;4897662;29;20039;-54
2021/11/12 15:58:51;;;;;;;3.35;1.48;;;20.10;43.10;;;;;;4897911;29;20032;-53
2021/11/12 16:04:29;;;;;;;4.07;1.90;;;20.10;43.10;;;;;;4897280;29;20052;-50
2021/11/12 16:09:27;;;;;;;3.40;1.48;;;20.10;43.10;;;;;;4897628;29;20108;-51
2021/11/12 16:12:05;;;;;;;4.22;1.73;;;20.10;43.10;;;;;;4897208;29;20111;-53
2021/11/12 16:14:46;;;;;;;5.65;2.00;;;20.10;43.10;;;;;;4897331;29;20029;-54
2021/11/12 16:19:59;;;;;;;4.53;1.77;;;20.10;43.10;;;;;;4897573;29;20115;-54
2021/11/12 16:23:03;;;;;;;4.72;1.88;;;20.20;43.00;;;;;;4897770;29;20047;-51
2021/11/12 16:27:45;;;;;;;4.30;1.60;;;20.10;43.00;;;;;;4897034;29;20036;-50
2021/11/12 16:30:12;;;;;;;5.95;2.00;;;20.10;43.00;;;;;;4897481;29;20111;-50
2021/11/12 16:32:44;;;;;;;5.45;1.90;;;20.20;43.00;;;;;;4897292;29;20036;-54
2021/11/12 16:35:15;;;;;;;4.72;2.08;;;20.10;43.10;;;;;;4897162;29;20040;-53
2021/11/12 16:37:41;;;;;;;4.63;1.80;;;20.10;43.00;;;;;;4897065;29;20504;-53
2021/11/12 16:45:11;;;;;;;6.35;1.65;;;20.10;43.00;;;;;;4900516;29;20417;-54
2021/11/12 16:47:47;;;;;;;3.97;1.70;;;20.10;43.00;;;;;;4900355;29;20040;-51
2021/11/12 17:03:53;;;;;;;;;;;20.20;43.00;;;;;;4900439;29;20052;-50
2021/11/12 17:06:21;;;;;;;3.17;1.50;;;20.10;43.00;;;;;;4900053;29;19914;-49
2021/11/12 17:14:07;;;;;;;5.63;2.00;;;20.10;43.00;;;;;;4900087;29;20060;-52
2021/11/12 17:16:46;;;;;;;4.72;1.80;;;20.10;43.00;;;;;;4899859;29;20031;-51
2021/11/12 17:20:01;;;;;;;4.55;1.83;;;20.10;43.00;;;;;;4900152;29;20092;-50
2021/11/12 18:02:56;;;;;;;6.60;2.30;;;20.20;42.90;;;;;;4859828;29;20186;-50
2021/11/12 18:11:06;;;;;;;6.65;2.22;;;20.20;42.90;;;;;;4898976;29;20031;-51
2021/11/12 18:21:42;;;;;;;5.72;2.03;;;20.20;42.90;;;;;;4896703;29;20461;-49
2021/11/12 21:45:48;;;;;;;7.65;2.13;;;20.00;42.90;;;;;;4899638;29;20459;-51
2021/11/12 21:48:14;;;;;;;4.82;2.22;;;20.00;42.90;;;;;;4899712;29;20116;-51
2021/11/12 21:50:40;;;;;;;4.55;1.90;;;20.00;42.90;;;;;;4899403;29;20539;-51
2021/11/12 21:53:06;;;;;;;5.47;2.28;;;20.00;42.90;;;;;;4899660;29;20409;-51
2021/11/12 21:55:33;;;;;;;5.07;2.00;;;20.00;42.90;;;;;;4899350;29;20036;-53
2021/11/12 21:57:59;;;;;;;4.43;1.92;;;20.00;42.90;;;;;;4899279;29;20457;-52
2021/11/12 22:00:27;;;;;;;6.35;2.45;;;20.00;42.90;;;;;;4899416;29;20108;-53
2021/11/12 22:02:54;;;;;;;4.45;2.13;;;20.00;42.90;;;;;;4899001;29;20528;-51
2021/11/12 22:05:19;;;;;;;4.97;2.25;;;20.00;42.80;;;;;;4899239;29;20031;-50
2021/11/12 22:07:45;;;;;;;5.65;2.30;;;20.00;42.80;;;;;;4899320;29;20025;-52
2021/11/12 22:10:11;;;;;;;5.80;2.03;;;20.00;42.90;;;;;;4899418;29;20029;-49
2021/11/12 22:12:37;;;;;;;5.47;2.03;;;20.00;42.80;;;;;;4899055;29;20080;-50
2021/11/12 22:15:05;;;;;;;5.00;2.13;;;20.00;42.80;;;;;;4899242;29;20025;-50
2021/11/12 22:17:31;;;;;;;4.55;2.30;;;20.00;42.90;;;;;;4899254;29;20107;-52
2021/11/12 22:19:56;;;;;;;6.35;2.58;;;20.00;42.90;;;;;;4898980;29;20452;-51
2021/11/12 22:22:22;;;;;;;4.82;1.80;;;20.00;42.90;;;;;;4898913;29;20096;-53
2021/11/12 22:24:48;;;;;;;4.85;2.08;;;20.00;42.90;;;;;;4898933;29;20389;-55
2021/11/12 22:27:13;;;;;;;6.43;2.42;;;20.00;42.90;;;;;;4899017;29;20417;-54
2021/11/12 22:29:39;;;;;;;4.55;2.30;;;20.00;42.90;;;;;;4899030;29;20041;-53
2021/11/12 22:32:04;;;;;;;4.82;2.20;;;20.00;42.90;;;;;;4898767;29;20032;-51
2021/11/12 22:34:30;;;;;;;6.57;2.20;;;20.00;42.90;;;;;;4898840;29;20029;-53
2021/11/12 22:36:56;;;;;;;5.38;2.08;;;19.90;42.90;;;;;;4898558;29;20165;-51
2021/11/12 22:39:22;;;;;;;5.15;2.10;;;19.90;42.90;;;;;;4898166;29;20033;-51
2021/11/12 22:41:50;;;;;;;4.72;1.98;;;19.90;42.90;;;;;;4898393;29;20462;-50
2021/11/12 22:44:15;;;;;;;4.93;2.20;;;20.00;42.90;;;;;;4898680;29;20064;-52
2021/11/12 22:46:43;;;;;;;4.80;2.22;;;19.90;42.90;;;;;;4898708;29;20028;-53